Аэропорт
Астана (UACC)

 UACC / TSE
ЗЦ Центральная Азия
Астана (UACC)
Астана (UACC)
 51.02220, 71.46690  / 1165 ft

 UACC 140413Z 1404/1424 18004MPS 0800 FZFG VV002 TXM08/1409Z TNM18/1424Z TEMPO 1404/1406 0200 -SG FZFG VV001 BECMG 1406/1408 4000 -SN BR BKN006 FM140800 VRB02MPS 9999 SCT007 BKN020 TEMPO 1412/1424 3000 BR SCT005
UACC_aip_1708
показать схемы
Название сценария Тип сценария Flight Simulator 9 Flight Simulator X Prepar3D v2 Prepar3D v3 Prepar3D v4 xPlane
Лёгкий сценарий аэропорта г. Астаны бесплатный


2018 © VATRUS division